Time,TemperatureF,DewpointF,PressureIn,WindDirection,WindDirectionDegrees,WindSpeedMPH,WindSpeedGustMPH,Humidity,HourlyPrecipIn,Conditions,Clouds,dailyrainin,SoftwareType,DateUTC
2013-04-04 00:00:00,58.0,48.2,29.67,WNW,293,0.2,0.2,70,0.00,,,0.00,WUHU216HW,2013-04-04 07:00:00,
2013-04-04 00:05:00,58.0,48.2,29.67,WNW,293,0.2,0.2,70,0.00,,,0.00,WUHU216HW,2013-04-04 07:05:00,
2013-04-04 00:30:00,57.6,48.6,29.67,SSW,203,0.9,0.9,72,0.00,,,0.00,WUHU216HW,2013-04-04 07:30:00,
2013-04-04 00:35:00,57.6,48.6,29.67,SSW,203,0.9,0.9,72,0.00,,,0.00,WUHU216HW,2013-04-04 07:35:00,
2013-04-04 01:00:00,57.2,48.6,29.67,SW,225,0.0,0.0,73,0.00,,,0.00,WUHU216HW,2013-04-04 08:00:00,
2013-04-04 01:05:00,57.2,48.6,29.67,SW,225,0.0,0.0,73,0.00,,,0.00,WUHU216HW,2013-04-04 08:05:00,
2013-04-04 01:30:00,56.7,48.4,29.67,SW,225,1.1,1.1,74,0.00,,,0.00,WUHU216HW,2013-04-04 08:30:00,
2013-04-04 01:35:00,56.7,48.4,29.67,SW,225,1.1,1.1,74,0.00,,,0.00,WUHU216HW,2013-04-04 08:35:00,
2013-04-04 02:00:00,55.8,48.3,29.67,WSW,248,0.0,0.0,76,0.00,,,0.00,WUHU216HW,2013-04-04 09:00:00,
2013-04-04 02:05:00,55.8,48.3,29.67,WSW,248,0.0,0.0,76,0.00,,,0.00,WUHU216HW,2013-04-04 09:05:00,
2013-04-04 02:30:00,56.2,48.6,29.66,NW,315,0.0,0.0,76,0.00,,,0.00,WUHU216HW,2013-04-04 09:30:00,
2013-04-04 02:35:00,56.2,48.6,29.66,NW,315,0.0,0.0,76,0.00,,,0.00,WUHU216HW,2013-04-04 09:35:00,
2013-04-04 03:00:00,56.9,49.3,29.66,NW,315,1.1,1.1,76,0.00,,,0.00,WUHU216HW,2013-04-04 10:00:00,
2013-04-04 03:05:00,56.9,49.3,29.66,NW,315,1.1,1.1,76,0.00,,,0.00,WUHU216HW,2013-04-04 10:05:00,
2013-04-04 03:30:00,56.2,49.3,29.65,NW,315,0.2,0.2,78,0.02,,,0.00,WUHU216HW,2013-04-04 10:30:00,
2013-04-04 03:35:00,56.2,49.3,29.65,NW,315,0.2,0.2,78,0.02,,,0.00,WUHU216HW,2013-04-04 10:35:00,
2013-04-04 04:00:00,54.7,48.0,29.66,NW,315,0.2,0.2,78,0.06,,,0.02,WUHU216HW,2013-04-04 11:00:00,
2013-04-04 04:05:00,54.7,48.0,29.66,NW,315,0.2,0.2,78,0.06,,,0.02,WUHU216HW,2013-04-04 11:05:00,
2013-04-04 04:30:00,54.2,48.2,29.68,NE,45,0.0,0.0,80,0.04,,,0.06,WUHU216HW,2013-04-04 11:30:00,
2013-04-04 04:35:00,54.2,48.2,29.68,NE,45,0.0,0.0,80,0.04,,,0.06,WUHU216HW,2013-04-04 11:35:00,
2013-04-04 05:00:00,53.8,48.5,29.68,North,0,0.0,0.0,82,0.05,,,0.08,WUHU216HW,2013-04-04 12:00:00,
2013-04-04 05:05:00,53.8,48.5,29.68,North,0,0.0,0.0,82,0.05,,,0.08,WUHU216HW,2013-04-04 12:05:00,
2013-04-04 05:30:00,53.3,48.6,29.67,South,180,1.8,1.8,84,0.08,,,0.11,WUHU216HW,2013-04-04 12:30:00,
2013-04-04 05:35:00,53.3,48.6,29.67,South,180,1.8,1.8,84,0.08,,,0.11,WUHU216HW,2013-04-04 12:35:00,
2013-04-04 06:00:00,52.7,48.3,29.66,South,180,0.4,0.4,85,0.05,,,0.15,WUHU216HW,2013-04-04 13:00:00,
2013-04-04 06:05:00,52.7,48.3,29.66,South,180,0.4,0.4,85,0.05,,,0.15,WUHU216HW,2013-04-04 13:05:00,
2013-04-04 06:30:00,52.6,48.4,29.67,North,0,0.0,0.0,86,0.01,,,0.17,WUHU216HW,2013-04-04 13:30:00,
2013-04-04 06:35:00,52.6,48.4,29.67,North,0,0.0,0.0,86,0.01,,,0.17,WUHU216HW,2013-04-04 13:35:00,
2013-04-04 07:00:00,52.7,48.6,29.68,North,0,0.7,0.7,86,0.01,,,0.17,WUHU216HW,2013-04-04 14:00:00,
2013-04-04 07:05:00,52.7,48.6,29.68,North,0,0.7,0.7,86,0.01,,,0.17,WUHU216HW,2013-04-04 14:05:00,
2013-04-04 07:30:00,53.1,49.3,29.70,SW,225,0.7,0.7,87,0.01,,,0.18,WUHU216HW,2013-04-04 14:30:00,
2013-04-04 07:35:00,53.1,49.3,29.70,SW,225,0.7,0.7,87,0.01,,,0.18,WUHU216HW,2013-04-04 14:35:00,
2013-04-04 08:00:00,53.6,50.1,29.70,NNE,23,0.0,0.0,88,0.00,,,0.18,WUHU216HW,2013-04-04 15:00:00,
2013-04-04 08:05:00,53.6,50.1,29.70,NNE,23,0.0,0.0,88,0.00,,,0.18,WUHU216HW,2013-04-04 15:05:00,
2013-04-04 08:30:00,54.5,51.3,29.72,West,270,0.0,0.0,89,0.03,,,0.18,WUHU216HW,2013-04-04 15:30:00,
2013-04-04 08:35:00,54.5,51.3,29.72,West,270,0.0,0.0,89,0.03,,,0.18,WUHU216HW,2013-04-04 15:35:00,
2013-04-04 09:00:00,55.1,51.8,29.73,SSE,158,0.0,0.0,89,0.04,,,0.21,WUHU216HW,2013-04-04 16:00:00,
2013-04-04 09:05:00,55.1,51.8,29.73,SSE,158,0.0,0.0,89,0.04,,,0.21,WUHU216HW,2013-04-04 16:05:00,
2013-04-04 09:30:00,55.4,52.2,29.74,SSE,158,0.0,0.0,89,0.01,,,0.22,WUHU216HW,2013-04-04 16:30:00,
2013-04-04 09:35:00,55.4,52.2,29.74,SSE,158,0.0,0.0,89,0.01,,,0.22,WUHU216HW,2013-04-04 16:35:00,
2013-04-04 10:00:00,56.0,52.7,29.74,North,0,0.0,0.0,89,0.00,,,0.22,WUHU216HW,2013-04-04 17:00:00,
2013-04-04 10:05:00,56.0,52.7,29.74,North,0,0.0,0.0,89,0.00,,,0.22,WUHU216HW,2013-04-04 17:05:00,
2013-04-04 10:30:00,57.1,53.8,29.74,East,90,0.0,0.0,89,0.00,,,0.22,WUHU216HW,2013-04-04 17:30:00,
2013-04-04 10:35:00,57.1,53.8,29.74,East,90,0.0,0.0,89,0.00,,,0.22,WUHU216HW,2013-04-04 17:35:00,
2013-04-04 11:00:00,58.5,55.6,29.75,WNW,293,0.4,0.4,90,0.00,,,0.22,WUHU216HW,2013-04-04 18:00:00,
2013-04-04 11:05:00,58.5,55.6,29.75,WNW,293,0.4,0.4,90,0.00,,,0.22,WUHU216HW,2013-04-04 18:05:00,
2013-04-04 11:30:00,59.4,55.5,29.75,WSW,248,2.2,2.2,87,0.00,,,0.22,WUHU216HW,2013-04-04 18:30:00,
2013-04-04 11:35:00,59.4,55.5,29.75,WSW,248,2.2,2.2,87,0.00,,,0.22,WUHU216HW,2013-04-04 18:35:00,
2013-04-04 12:00:00,60.5,56.4,29.75,NW,315,1.3,1.3,86,0.00,,,0.22,WUHU216HW,2013-04-04 19:00:00,
2013-04-04 12:05:00,60.5,56.4,29.75,NW,315,1.3,1.3,86,0.00,,,0.22,WUHU216HW,2013-04-04 19:05:00,
2013-04-04 12:10:00,60.5,56.4,29.75,NW,315,1.3,1.3,86,0.00,,,0.22,WUHU216HW,2013-04-04 19:10:00,
2013-04-04 12:30:00,63.4,57.4,29.74,SSW,203,2.7,2.7,81,0.00,,,0.22,WUHU216HW,2013-04-04 19:30:00,
2013-04-04 12:35:00,63.4,57.4,29.74,SSW,203,2.7,2.7,81,0.00,,,0.22,WUHU216HW,2013-04-04 19:35:00,
2013-04-04 13:00:00,65.7,58.3,29.74,SSW,203,1.3,1.3,77,0.00,,,0.22,WUHU216HW,2013-04-04 20:00:00,
2013-04-04 13:05:00,65.7,58.3,29.74,SSW,203,1.3,1.3,77,0.00,,,0.22,WUHU216HW,2013-04-04 20:05:00,
2013-04-04 13:30:00,66.6,57.7,29.74,WSW,248,2.5,2.5,73,0.00,,,0.22,WUHU216HW,2013-04-04 20:30:00,
2013-04-04 13:35:00,66.6,57.7,29.74,WSW,248,2.5,2.5,73,0.00,,,0.22,WUHU216HW,2013-04-04 20:35:00,
2013-04-04 14:00:00,67.1,57.4,29.74,SW,225,1.6,1.6,71,0.00,,,0.22,WUHU216HW,2013-04-04 21:00:00,
2013-04-04 14:05:00,67.1,57.4,29.74,SW,225,1.6,1.6,71,0.00,,,0.22,WUHU216HW,2013-04-04 21:05:00,
2013-04-04 14:30:00,68.0,57.5,29.73,SSW,203,1.8,1.8,69,0.00,,,0.22,WUHU216HW,2013-04-04 21:30:00,
2013-04-04 14:35:00,68.0,57.5,29.73,SSW,203,1.8,1.8,69,0.00,,,0.22,WUHU216HW,2013-04-04 21:35:00,
2013-04-04 15:00:00,68.0,56.7,29.72,SSW,203,2.0,2.0,67,0.00,,,0.22,WUHU216HW,2013-04-04 22:00:00,
2013-04-04 15:05:00,68.0,56.7,29.72,SSW,203,2.0,2.0,67,0.00,,,0.22,WUHU216HW,2013-04-04 22:05:00,
2013-04-04 15:30:00,67.0,56.1,29.73,South,180,2.7,2.7,68,0.00,,,0.22,WUHU216HW,2013-04-04 22:30:00,
2013-04-04 15:35:00,67.0,56.1,29.73,South,180,2.7,2.7,68,0.00,,,0.22,WUHU216HW,2013-04-04 22:35:00,
2013-04-04 16:00:00,66.4,55.5,29.73,NW,315,1.8,1.8,68,0.00,,,0.22,WUHU216HW,2013-04-04 23:00:00,
2013-04-04 16:05:00,66.4,55.5,29.73,NW,315,1.8,1.8,68,0.00,,,0.22,WUHU216HW,2013-04-04 23:05:00,
2013-04-04 16:30:00,65.3,55.7,29.74,North,0,1.8,1.8,71,0.00,,,0.22,WUHU216HW,2013-04-04 23:30:00,
2013-04-04 16:35:00,65.3,55.7,29.74,North,0,1.8,1.8,71,0.00,,,0.22,WUHU216HW,2013-04-04 23:35:00,
2013-04-04 17:00:00,65.2,55.5,29.73,SSW,203,1.6,1.6,71,0.00,,,0.22,WUHU216HW,2013-04-05 00:00:00,
2013-04-04 17:05:00,65.2,55.5,29.73,SSW,203,1.6,1.6,71,0.00,,,0.22,WUHU216HW,2013-04-05 00:05:00,
2013-04-04 17:30:00,63.7,54.5,29.73,NW,315,0.4,0.4,72,0.00,,,0.22,WUHU216HW,2013-04-05 00:30:00,
2013-04-04 17:35:00,63.7,54.5,29.73,NW,315,0.4,0.4,72,0.00,,,0.22,WUHU216HW,2013-04-05 00:35:00,
2013-04-04 18:00:00,63.0,54.2,29.73,North,0,0.4,0.4,73,0.00,,,0.22,WUHU216HW,2013-04-05 01:00:00,
2013-04-04 18:05:00,63.0,54.2,29.73,North,0,0.4,0.4,73,0.00,,,0.22,WUHU216HW,2013-04-05 01:05:00,
2013-04-04 18:30:00,61.6,53.2,29.72,North,0,1.1,1.1,74,0.00,,,0.22,WUHU216HW,2013-04-05 01:30:00,
2013-04-04 18:35:00,61.6,53.2,29.72,North,0,1.1,1.1,74,0.00,,,0.22,WUHU216HW,2013-04-05 01:35:00,
2013-04-04 19:00:00,60.7,52.7,29.73,West,270,0.4,0.4,75,0.00,,,0.22,WUHU216HW,2013-04-05 02:00:00,
2013-04-04 19:05:00,60.7,52.7,29.73,West,270,0.4,0.4,75,0.00,,,0.22,WUHU216HW,2013-04-05 02:05:00,
2013-04-04 19:30:00,59.9,52.4,29.73,NW,315,0.9,0.9,76,0.00,,,0.22,WUHU216HW,2013-04-05 02:30:00,
2013-04-04 19:35:00,59.9,52.4,29.73,NW,315,0.9,0.9,76,0.00,,,0.22,WUHU216HW,2013-04-05 02:35:00,
2013-04-04 20:00:00,59.6,52.4,29.74,West,270,0.0,0.0,77,0.00,,,0.22,WUHU216HW,2013-04-05 03:00:00,
2013-04-04 20:05:00,59.6,52.4,29.74,West,270,0.0,0.0,77,0.00,,,0.22,WUHU216HW,2013-04-05 03:05:00,
2013-04-04 20:30:00,59.4,52.6,29.75,WNW,293,0.2,0.2,78,0.00,,,0.22,WUHU216HW,2013-04-05 03:30:00,
2013-04-04 20:35:00,59.4,52.6,29.75,WNW,293,0.2,0.2,78,0.00,,,0.22,WUHU216HW,2013-04-05 03:35:00,
2013-04-04 21:00:00,59.0,52.2,29.75,South,180,0.7,0.7,78,0.00,,,0.22,WUHU216HW,2013-04-05 04:00:00,
2013-04-04 21:01:00,59.0,52.2,29.75,South,180,0.7,0.7,78,0.00,,,0.22,WUHU216HW,2013-04-05 04:01:00,
2013-04-04 21:06:00,59.0,52.2,29.75,South,180,0.7,0.7,78,0.00,,,0.22,WUHU216HW,2013-04-05 04:06:00,
2013-04-04 21:30:00,58.9,52.4,29.76,WSW,248,0.0,0.0,79,0.00,,,0.22,WUHU216HW,2013-04-05 04:30:00,
2013-04-04 21:35:00,58.9,52.4,29.76,WSW,248,0.0,0.0,79,0.00,,,0.22,WUHU216HW,2013-04-05 04:35:00,
2013-04-04 22:00:00,58.9,52.4,29.77,WNW,293,0.0,0.0,79,0.00,,,0.22,WUHU216HW,2013-04-05 05:00:00,
2013-04-04 22:05:00,58.9,52.4,29.77,WNW,293,0.0,0.0,79,0.00,,,0.22,WUHU216HW,2013-04-05 05:05:00,
2013-04-04 22:30:00,58.7,52.2,29.77,NW,315,0.4,0.4,79,0.00,,,0.22,WUHU216HW,2013-04-05 05:30:00,
2013-04-04 22:35:00,58.7,52.2,29.77,NW,315,0.4,0.4,79,0.00,,,0.22,WUHU216HW,2013-04-05 05:35:00,
2013-04-04 23:00:00,58.3,51.8,29.77,NNW,338,0.0,0.0,79,0.00,,,0.22,WUHU216HW,2013-04-05 06:00:00,
2013-04-04 23:05:00,58.3,51.8,29.77,NNW,338,0.0,0.0,79,0.00,,,0.22,WUHU216HW,2013-04-05 06:05:00,
2013-04-04 23:30:00,58.1,52.0,29.77,NE,45,0.0,0.0,80,0.00,,,0.22,WUHU216HW,2013-04-05 06:30:00,
2013-04-04 23:35:00,58.1,52.0,29.77,NE,45,0.0,0.0,80,0.00,,,0.22,WUHU216HW,2013-04-05 06:35:00,
2013-04-04 23:40:00,58.1,52.0,29.77,NE,45,0.0,0.0,80,0.00,,,0.22,WUHU216HW,2013-04-05 06:40:00,